Waynesboro, Pennsylvania
Current Conditions -  °F | °C
As of 7:53 PM on Tuesday 27 Jan 2015 (Local Time) from KRYT Reporting Station
Clear Clear  
Wind Chill: -7°   Ceiling: Unl
Heat Index: -4°   Visibility: 10mi
Dew Point: -10°   Wind: 5mph
Humidity: 63%   Direction: NA
Pressure: 29.85"   Gusts: NA
Location:  39.76°N, 77.58°W
Report Text: KRYT 280053Z AUTO VRB04KT 10SM CLR M04/M10 A2985 RMK AO2 PRESFR SLP127 T10391100 $
Loading
Personal Weather Stations






























Interactive Weather Map New forecast layout! Learn more

10-Day Weather Forecast

Advertisements
Track Severe Weather on mobile